createdAt,value
2022-11-14T00:02:26.601Z,97132.13
2022-11-14T00:05:13.136Z,97133.31
2022-11-14T00:08:01.527Z,97138.81
2022-11-14T00:10:49.231Z,97141.84
2022-11-14T00:13:36.697Z,97125.75
2022-11-14T00:16:23.201Z,97124.75
2022-11-14T00:19:09.816Z,97122.63
2022-11-14T00:21:56.345Z,97115.13
2022-11-14T00:24:44.033Z,97123.38
2022-11-14T00:27:30.496Z,97117.69
2022-11-14T00:30:17.446Z,97103.50
2022-11-14T00:33:03.851Z,97108.84
2022-11-14T00:35:54.251Z,97117.94
2022-11-14T00:38:41.019Z,97116.00
2022-11-14T00:41:29.160Z,97112.53
2022-11-14T00:44:15.665Z,97110.94
2022-11-14T00:47:02.375Z,97109.81
2022-11-14T00:49:49.211Z,97110.44
2022-11-14T00:52:35.662Z,97109.31
2022-11-14T00:55:22.104Z,97109.31
2022-11-14T00:58:10.374Z,97111.56
2022-11-14T01:00:57.156Z,97102.59
2022-11-14T01:03:43.570Z,97110.03
2022-11-14T01:06:30.131Z,97097.81
2022-11-14T01:09:16.542Z,97086.56
2022-11-14T01:12:03.277Z,97087.03
2022-11-14T01:14:51.241Z,97089.06
2022-11-14T01:17:38.146Z,97086.50
2022-11-14T01:20:24.618Z,97096.38
2022-11-14T01:23:12.657Z,97100.69
2022-11-14T01:26:02.949Z,97106.81
2022-11-14T01:28:49.727Z,97098.50
2022-11-14T01:31:37.712Z,97094.50
2022-11-14T01:34:24.761Z,97094.78
2022-11-14T01:37:11.298Z,97098.34
2022-11-14T01:39:57.615Z,97080.22
2022-11-14T01:42:44.396Z,97075.59
2022-11-14T01:45:53.415Z,97075.50
2022-11-14T01:48:44.005Z,97063.41
2022-11-14T01:51:32.952Z,97075.41
2022-11-14T01:54:23.320Z,97089.97
2022-11-14T01:57:10.862Z,97088.28
2022-11-14T02:00:00.936Z,97077.03
2022-11-14T02:02:47.729Z,97080.75
2022-11-14T02:05:36.191Z,97085.06
2022-11-14T02:08:23.210Z,97084.06
2022-11-14T02:11:11.638Z,97080.44
2022-11-14T02:13:59.150Z,97082.69
2022-11-14T02:17:01.030Z,97075.53
2022-11-14T02:19:54.624Z,97089.66
2022-11-14T02:22:43.240Z,97081.66
2022-11-14T02:25:30.148Z,97069.41
2022-11-14T02:28:16.903Z,97065.69
2022-11-14T02:31:03.315Z,97068.59
2022-11-14T02:33:49.726Z,97060.88
2022-11-14T02:36:36.449Z,97053.41
2022-11-14T02:39:24.671Z,97047.53
2022-11-14T02:42:11.171Z,97052.16
2022-11-14T02:44:57.640Z,97049.47
2022-11-14T02:47:44.065Z,97045.50
2022-11-14T02:50:30.813Z,97057.00
2022-11-14T02:53:17.467Z,97065.59
2022-11-14T02:56:05.809Z,97058.38
2022-11-14T02:58:52.541Z,97051.66
2022-11-14T03:01:38.909Z,97048.56
2022-11-14T03:04:25.389Z,97058.94
2022-11-14T03:07:12.618Z,97053.66
2022-11-14T03:09:59.166Z,97051.34
2022-11-14T03:12:47.251Z,97050.53
2022-11-14T03:15:34.079Z,97056.38
2022-11-14T03:18:20.753Z,97057.25
2022-11-14T03:21:07.711Z,97056.91
2022-11-14T03:23:54.016Z,97052.69
2022-11-14T03:26:40.713Z,97058.81
2022-11-14T03:29:29.030Z,97056.91
2022-11-14T03:32:15.452Z,97060.69
2022-11-14T03:35:02.051Z,97069.28
2022-11-14T03:37:50.897Z,97072.00
2022-11-14T03:40:40.779Z,97060.44
2022-11-14T03:43:28.078Z,97060.56
2022-11-14T03:46:16.003Z,97056.34
2022-11-14T03:49:03.194Z,97053.72
2022-11-14T03:51:50.712Z,97059.34
2022-11-14T03:54:37.037Z,97059.44
2022-11-14T03:57:23.337Z,97062.66
2022-11-14T04:00:11.264Z,97067.41
2022-11-14T04:02:59.034Z,97070.28
2022-11-14T04:05:46.108Z,97054.53
2022-11-14T04:08:33.554Z,97064.69
2022-11-14T04:11:21.007Z,97068.19
2022-11-14T04:14:07.368Z,97071.41
2022-11-14T04:16:54.078Z,97055.41
2022-11-14T04:19:42.191Z,97053.81
2022-11-14T04:22:28.544Z,97061.22
2022-11-14T04:25:15.245Z,97059.97
2022-11-14T04:28:01.616Z,97056.78
2022-11-14T04:30:47.926Z,97054.75
2022-11-14T04:33:34.397Z,97056.06
2022-11-14T04:36:22.487Z,97051.97
2022-11-14T04:39:12.536Z,97052.84
2022-11-14T04:41:58.853Z,97048.56
2022-11-14T04:44:45.664Z,97044.41
2022-11-14T04:47:32.313Z,97049.97
2022-11-14T04:50:18.956Z,97048.66
2022-11-14T04:53:06.885Z,97053.47
2022-11-14T04:55:57.014Z,97044.34
2022-11-14T04:58:43.553Z,97031.53
2022-11-14T05:01:30.248Z,97033.59
2022-11-14T05:04:17.210Z,97038.22
2022-11-14T05:07:04.303Z,97054.91
2022-11-14T05:09:52.318Z,97049.09
2022-11-14T05:12:38.826Z,97056.06
2022-11-14T05:15:25.536Z,97031.69
2022-11-14T05:18:12.313Z,97024.31
2022-11-14T05:21:00.056Z,97028.38
2022-11-14T05:23:46.563Z,97047.44
2022-11-14T05:26:34.358Z,97031.50
2022-11-14T05:29:21.091Z,97035.53
2022-11-14T05:32:09.302Z,97038.41
2022-11-14T05:34:58.981Z,97036.25
2022-11-14T05:37:45.645Z,97042.63
2022-11-14T05:40:32.405Z,97041.13
2022-11-14T05:43:20.631Z,97035.28
2022-11-14T05:46:10.380Z,97040.41
2022-11-14T05:48:56.861Z,97036.44
2022-11-14T05:51:43.582Z,97049.31
2022-11-14T05:54:30.251Z,97050.56
2022-11-14T05:57:16.984Z,97046.88
2022-11-14T06:00:05.233Z,97068.44
2022-11-14T06:02:53.712Z,97070.31
2022-11-14T06:05:40.574Z,97080.44
2022-11-14T06:08:29.170Z,97092.44
2022-11-14T06:11:17.543Z,97098.81
2022-11-14T06:14:08.397Z,97101.06
2022-11-14T06:16:58.887Z,97093.13
2022-11-14T06:19:46.155Z,97094.50
2022-11-14T06:22:33.368Z,97113.16
2022-11-14T06:25:20.223Z,97125.94
2022-11-14T06:28:06.924Z,97128.44
2022-11-14T06:30:58.175Z,97133.22
2022-11-14T06:33:46.676Z,97129.69
2022-11-14T06:36:33.364Z,97133.41
2022-11-14T06:39:20.170Z,97148.22
2022-11-14T06:42:07.112Z,97145.66
2022-11-14T06:44:53.644Z,97136.91
2022-11-14T06:47:40.167Z,97128.63
2022-11-14T06:50:28.496Z,97122.25
2022-11-14T06:53:15.176Z,97120.78
2022-11-14T06:56:03.566Z,97117.03
2022-11-14T06:58:51.222Z,97107.97
2022-11-14T07:01:37.865Z,97118.16
2022-11-14T07:04:24.507Z,97133.13
2022-11-14T07:07:12.523Z,97127.28
2022-11-14T07:09:59.531Z,97125.16
2022-11-14T07:12:46.034Z,97118.78
2022-11-14T07:15:32.929Z,97100.41
2022-11-14T07:18:20.009Z,97099.81
2022-11-14T07:21:07.383Z,97098.00
2022-11-14T07:23:55.519Z,97101.50
2022-11-14T07:26:42.318Z,97092.69
2022-11-14T07:29:28.740Z,97087.97
2022-11-14T07:32:15.272Z,97086.34
2022-11-14T07:35:02.597Z,97087.97
2022-11-14T07:37:49.895Z,97091.03
2022-11-14T07:40:38.271Z,97088.69
2022-11-14T07:43:25.239Z,97081.19
2022-11-14T07:46:14.006Z,97093.63
2022-11-14T07:49:00.475Z,97109.28
2022-11-14T07:51:47.355Z,97113.03
2022-11-14T07:54:34.155Z,97102.66
2022-11-14T07:57:22.275Z,97093.06
2022-11-14T08:00:10.794Z,97086.28
2022-11-14T08:02:57.118Z,97075.59
2022-11-14T08:05:43.970Z,97077.41
2022-11-14T08:08:31.062Z,97075.63
2022-11-14T08:11:37.884Z,97078.59
2022-11-14T08:14:25.796Z,97072.50
2022-11-14T08:17:12.495Z,97072.56
2022-11-14T08:19:59.205Z,97081.59
2022-11-14T08:22:45.774Z,97078.94
2022-11-14T08:25:32.256Z,97087.00
2022-11-14T08:28:18.887Z,97088.66
2022-11-14T08:31:07.044Z,97072.94
2022-11-14T08:33:54.020Z,97072.41
2022-11-14T08:36:40.449Z,97070.06
2022-11-14T08:39:27.197Z,97068.47
2022-11-14T08:42:13.789Z,97058.91
2022-11-14T08:45:00.602Z,97060.97
2022-11-14T08:47:53.542Z,97045.09
2022-11-14T08:50:40.234Z,97037.06
2022-11-14T08:53:26.903Z,97046.44
2022-11-14T08:56:13.997Z,97046.97
2022-11-14T08:59:00.825Z,97053.63
2022-11-14T09:01:47.491Z,97058.41
2022-11-14T09:04:35.790Z,97068.34
2022-11-14T09:07:22.767Z,97065.94
2022-11-14T09:10:10.355Z,97068.09
2022-11-14T09:12:57.679Z,97067.63
2022-11-14T09:15:44.616Z,97067.97
2022-11-14T09:18:31.780Z,97053.91
2022-11-14T09:21:20.445Z,97063.53
2022-11-14T09:24:07.720Z,97053.44
2022-11-14T09:26:56.988Z,97063.78
2022-11-14T09:29:43.731Z,97059.31
2022-11-14T09:32:30.634Z,97052.91
2022-11-14T09:35:18.075Z,97053.47
2022-11-14T09:38:07.775Z,97058.34
2022-11-14T09:41:05.006Z,97061.00
2022-11-14T09:44:20.564Z,97061.84
2022-11-14T09:47:10.944Z,97063.75
2022-11-14T09:50:03.857Z,97066.41
2022-11-14T09:52:53.740Z,97061.88
2022-11-14T09:55:41.902Z,97059.25
2022-11-14T09:58:29.204Z,97061.16
2022-11-14T10:01:20.753Z,97056.34
2022-11-14T10:04:15.517Z,97052.28
2022-11-14T10:07:10.167Z,97050.44
2022-11-14T10:10:05.247Z,97061.69
2022-11-14T10:13:00.371Z,97052.41
2022-11-14T10:15:51.338Z,97061.97
2022-11-14T10:19:00.162Z,97068.69
2022-11-14T10:22:07.934Z,97082.59
2022-11-14T10:25:04.998Z,97085.88
2022-11-14T10:28:05.501Z,97069.31
2022-11-14T10:31:00.229Z,97080.28
2022-11-14T10:33:52.828Z,97077.09
2022-11-14T10:36:54.442Z,97073.63
2022-11-14T10:39:47.385Z,97064.56
2022-11-14T10:42:37.666Z,97063.50
2022-11-14T10:45:29.251Z,97076.59
2022-11-14T10:48:18.549Z,97065.63
2022-11-14T10:51:09.113Z,97072.03
2022-11-14T10:53:57.465Z,97070.16
2022-11-14T10:56:47.599Z,97075.22
2022-11-14T10:59:34.329Z,97073.91
2022-11-14T11:02:22.372Z,97068.53
2022-11-14T11:05:16.419Z,97063.44
2022-11-14T11:08:42.012Z,97061.81
2022-11-14T11:11:33.664Z,97069.84
2022-11-14T11:14:20.840Z,97060.72
2022-11-14T11:17:22.687Z,97077.78
2022-11-14T11:20:31.660Z,97074.00
2022-11-14T11:23:20.121Z,97071.81
2022-11-14T11:26:09.518Z,97072.91
2022-11-14T11:29:05.388Z,97068.06
2022-11-14T11:31:53.943Z,97078.16
2022-11-14T11:34:41.766Z,97070.16
2022-11-14T11:37:30.573Z,97068.53
2022-11-14T11:40:20.843Z,97060.53
2022-11-14T11:46:24.034Z,97067.44
2022-11-14T11:49:15.194Z,97072.97
2022-11-14T11:52:06.124Z,97067.66
2022-11-14T11:54:59.513Z,97070.28
2022-11-14T11:57:49.324Z,97076.88
2022-11-14T12:00:36.244Z,97073.59
2022-11-14T12:03:24.256Z,97074.66
2022-11-14T12:06:16.220Z,97083.22
2022-11-14T12:09:14.999Z,97081.56
2022-11-14T12:12:04.450Z,97079.94
2022-11-14T12:15:02.069Z,97081.47
2022-11-14T12:18:11.855Z,97088.44
2022-11-14T12:21:12.523Z,97089.94
2022-11-14T12:24:19.144Z,97092.09
2022-11-14T12:27:16.598Z,97093.16
2022-11-14T12:30:10.473Z,97100.03
2022-11-14T12:33:01.072Z,97092.47
2022-11-14T12:35:51.257Z,97101.53
2022-11-14T12:38:43.331Z,97095.91
2022-11-14T12:41:32.616Z,97094.47
2022-11-14T12:44:24.105Z,97103.50
2022-11-14T12:47:16.784Z,97097.03
2022-11-14T12:50:24.700Z,97092.41
2022-11-14T12:53:38.691Z,97102.53
2022-11-14T12:56:55.203Z,97096.84
2022-11-14T12:59:51.338Z,97113.00
2022-11-14T13:02:53.159Z,97102.75
2022-11-14T13:06:01.025Z,97113.41
2022-11-14T13:09:07.190Z,97112.22
2022-11-14T13:12:12.626Z,97119.00
2022-11-14T13:15:17.472Z,97118.16
2022-11-14T13:18:27.110Z,97109.72
2022-11-14T13:21:45.608Z,97105.34
2022-11-14T13:25:06.111Z,97115.06
2022-11-14T13:28:18.877Z,97111.88
2022-11-14T13:31:08.954Z,97117.09
2022-11-14T13:33:59.127Z,97111.09
2022-11-14T13:36:48.737Z,97108.41
2022-11-14T13:39:41.805Z,97115.91
2022-11-14T13:42:42.257Z,97105.66
2022-11-14T13:45:43.882Z,97100.88
2022-11-14T13:48:56.942Z,97098.59
2022-11-14T13:51:44.611Z,97097.53
2022-11-14T13:54:31.152Z,97100.88
2022-11-14T13:57:28.789Z,97110.91
2022-11-14T14:00:20.375Z,97103.25
2022-11-14T14:03:23.005Z,97103.59
2022-11-14T14:06:20.968Z,97105.28
2022-11-14T14:09:14.451Z,97098.19
2022-11-14T14:12:12.726Z,97101.88
2022-11-14T14:15:09.195Z,97096.44
2022-11-14T14:18:02.652Z,97083.97
2022-11-14T14:20:56.894Z,97077.47
2022-11-14T14:23:49.090Z,97082.03
2022-11-14T14:26:42.398Z,97085.66
2022-11-14T14:29:37.260Z,97084.31
2022-11-14T14:32:25.474Z,97086.66
2022-11-14T14:35:26.091Z,97085.97
2022-11-14T14:38:15.276Z,97080.47
2022-11-14T14:41:01.985Z,97082.91
2022-11-14T14:43:53.639Z,97085.53
2022-11-14T14:46:40.395Z,97084.97
2022-11-14T14:49:30.620Z,97076.94
2022-11-14T14:52:22.285Z,97077.81
2022-11-14T14:55:20.478Z,97075.97
2022-11-14T14:58:22.241Z,97069.66
2022-11-14T15:01:13.618Z,97069.06
2022-11-14T15:04:05.263Z,97074.25
2022-11-14T15:06:52.351Z,97072.34
2022-11-14T15:09:38.875Z,97075.63
2022-11-14T15:12:29.009Z,97077.97
2022-11-14T15:15:16.789Z,97075.38
2022-11-14T15:18:06.878Z,97077.72
2022-11-14T15:21:10.489Z,97080.47
2022-11-14T15:24:02.052Z,97078.72
2022-11-14T15:26:50.510Z,97085.84
2022-11-14T15:29:47.087Z,97069.97
2022-11-14T15:32:33.970Z,97071.78
2022-11-14T15:35:29.348Z,97078.09
2022-11-14T15:41:31.454Z,97075.72
2022-11-14T15:44:30.973Z,97078.75
2022-11-14T15:47:23.945Z,97085.97
2022-11-14T15:50:26.334Z,97078.09
2022-11-14T15:53:22.064Z,97068.75
2022-11-14T15:56:12.397Z,97070.84
2022-11-14T15:58:58.866Z,97068.41
2022-11-14T16:01:47.499Z,97066.69
2022-11-14T16:04:37.028Z,97065.31
2022-11-14T16:07:23.971Z,97061.72
2022-11-14T16:10:15.440Z,97067.16
2022-11-14T16:13:02.114Z,97079.34
2022-11-14T16:15:48.949Z,97076.84
2022-11-14T16:18:35.703Z,97075.81
2022-11-14T16:21:23.678Z,97072.66
2022-11-14T16:24:16.861Z,97073.13
2022-11-14T16:27:03.618Z,97076.19
2022-11-14T16:29:50.297Z,97086.09
2022-11-14T16:32:36.789Z,97078.66
2022-11-14T16:35:24.852Z,97081.31
2022-11-14T16:38:14.018Z,97074.59
2022-11-14T16:41:01.129Z,97071.91
2022-11-14T16:43:47.581Z,97077.09
2022-11-14T16:46:34.191Z,97076.56
2022-11-14T16:49:20.983Z,97078.38
2022-11-14T16:52:08.733Z,97074.19
2022-11-14T16:54:56.930Z,97076.78
2022-11-14T16:57:43.765Z,97077.03
2022-11-14T17:00:30.472Z,97077.81
2022-11-14T17:03:18.151Z,97077.03
2022-11-14T17:06:09.938Z,97067.44
2022-11-14T17:08:56.874Z,97067.19
2022-11-14T17:11:45.554Z,97067.72
2022-11-14T17:14:32.092Z,97068.31
2022-11-14T17:17:18.929Z,97075.81
2022-11-14T17:20:06.463Z,97067.81
2022-11-14T17:22:53.055Z,97064.59
2022-11-14T17:25:39.841Z,97076.44
2022-11-14T17:28:28.144Z,97074.88
2022-11-14T17:31:15.927Z,97069.59
2022-11-14T17:34:03.053Z,97086.25
2022-11-14T17:36:49.544Z,97081.50
2022-11-14T17:39:36.229Z,97085.22
2022-11-14T17:42:22.986Z,97089.50
2022-11-14T17:45:11.520Z,97091.38
2022-11-14T17:47:58.297Z,97100.19
2022-11-14T17:50:44.655Z,97097.56
2022-11-14T17:53:33.563Z,97110.16
2022-11-14T17:56:22.188Z,97105.63
2022-11-14T17:59:09.135Z,97096.31
2022-11-14T18:01:59.964Z,97100.81
2022-11-14T18:04:48.007Z,97102.41
2022-11-14T18:07:34.561Z,97099.75
2022-11-14T18:10:21.267Z,97097.59
2022-11-14T18:13:08.185Z,97105.31
2022-11-14T18:15:54.789Z,97101.34
2022-11-14T18:18:42.649Z,97110.97
2022-11-14T18:21:32.644Z,97102.94
2022-11-14T18:24:19.167Z,97107.78
2022-11-14T18:27:05.671Z,97100.03
2022-11-14T18:29:52.648Z,97105.09
2022-11-14T18:32:39.248Z,97101.91
2022-11-14T18:35:27.172Z,97113.13
2022-11-14T18:38:13.561Z,97099.25
2022-11-14T18:41:01.261Z,97101.94
2022-11-14T18:43:48.174Z,97101.91
2022-11-14T18:46:37.512Z,97099.78
2022-11-14T18:49:28.277Z,97103.53
2022-11-14T18:52:17.718Z,97093.09
2022-11-14T18:55:05.530Z,97101.66
2022-11-14T18:57:52.399Z,97094.47
2022-11-14T19:00:39.322Z,97089.91
2022-11-14T19:03:25.941Z,97094.44
2022-11-14T19:06:13.853Z,97101.91
2022-11-14T19:09:06.880Z,97106.19
2022-11-14T19:12:14.870Z,97097.38
2022-11-14T19:15:02.200Z,97104.06
2022-11-14T19:17:49.432Z,97096.06
2022-11-14T19:20:35.853Z,97098.75
2022-11-14T19:23:22.407Z,97100.88
2022-11-14T19:26:10.392Z,97105.13
2022-11-14T19:28:57.404Z,97101.94
2022-11-14T19:31:44.414Z,97102.69
2022-11-14T19:34:31.112Z,97102.97
2022-11-14T19:37:17.536Z,97099.22
2022-11-14T19:40:04.905Z,97105.34
2022-11-14T19:42:55.958Z,97102.94
2022-11-14T19:45:42.672Z,97096.78
2022-11-14T19:48:29.313Z,97093.31
2022-11-14T19:51:18.035Z,97100.19
2022-11-14T19:54:05.062Z,97094.88
2022-11-14T19:56:51.422Z,97087.06
2022-11-14T19:59:40.635Z,97099.91
2022-11-14T20:02:28.582Z,97089.50
2022-11-14T20:05:15.056Z,97101.25
2022-11-14T20:08:01.746Z,97098.59
2022-11-14T20:10:56.106Z,97099.09
2022-11-14T20:13:44.035Z,97101.50
2022-11-14T20:16:33.690Z,97101.66
2022-11-14T20:19:20.717Z,97099.53
2022-11-14T20:22:07.363Z,97098.25
2022-11-14T20:24:54.135Z,97093.41
2022-11-14T20:27:40.991Z,97091.75
2022-11-14T20:30:27.790Z,97101.59
2022-11-14T20:33:15.617Z,97098.41
2022-11-14T20:36:05.472Z,97093.06
2022-11-14T20:38:53.004Z,97090.72
2022-11-14T20:41:39.719Z,97088.88
2022-11-14T20:44:26.273Z,97085.94
2022-11-14T20:47:13.084Z,97093.16
2022-11-14T20:50:01.262Z,97096.84
2022-11-14T20:52:48.530Z,97088.28
2022-11-14T20:55:35.466Z,97086.06
2022-11-14T20:58:22.336Z,97085.00
2022-11-14T21:01:09.151Z,97092.16
2022-11-14T21:03:55.979Z,97096.69
2022-11-14T21:06:44.247Z,97091.34
2022-11-14T21:09:31.248Z,97084.69
2022-11-14T21:12:18.130Z,97088.19
2022-11-14T21:15:05.615Z,97094.59
2022-11-14T21:17:52.926Z,97090.56
2022-11-14T21:20:39.769Z,97091.34
2022-11-14T21:23:28.115Z,97082.81
2022-11-14T21:26:16.963Z,97079.09
2022-11-14T21:29:06.024Z,97074.03
2022-11-14T21:31:52.382Z,97071.13
2022-11-14T21:34:39.141Z,97058.88
2022-11-14T21:37:25.795Z,97062.56
2022-11-14T21:40:14.258Z,97052.88
2022-11-14T21:43:00.770Z,97053.69
2022-11-14T21:45:55.247Z,97053.38
2022-11-14T21:48:43.035Z,97047.78
2022-11-14T21:51:30.047Z,97040.06
2022-11-14T21:54:16.665Z,97046.69
2022-11-14T21:57:09.736Z,97044.72
2022-11-14T21:59:56.605Z,97042.03
2022-11-14T22:03:00.770Z,97042.63
2022-11-14T22:05:47.288Z,97050.03
2022-11-14T22:08:34.058Z,97046.28
2022-11-14T22:11:20.960Z,97048.44
2022-11-14T22:14:09.343Z,97045.25
2022-11-14T22:16:56.155Z,97047.59
2022-11-14T22:19:42.793Z,97045.75
2022-11-14T22:22:29.590Z,97046.53
2022-11-14T22:25:16.196Z,97048.88
2022-11-14T22:28:02.675Z,97042.44
2022-11-14T22:30:50.696Z,97043.47
2022-11-14T22:33:42.719Z,97048.78
2022-11-14T22:36:31.907Z,97052.50
2022-11-14T22:39:18.355Z,97039.22
2022-11-14T22:42:05.323Z,97042.97
2022-11-14T22:44:51.944Z,97043.47
2022-11-14T22:47:39.960Z,97042.59
2022-11-14T22:50:26.540Z,97057.72
2022-11-14T22:53:13.063Z,97055.00
2022-11-14T22:56:00.309Z,97048.13
2022-11-14T22:58:47.377Z,97046.47
2022-11-14T23:01:34.159Z,97041.72
2022-11-14T23:04:22.020Z,97043.25
2022-11-14T23:07:08.616Z,97039.72
2022-11-14T23:09:55.257Z,97040.41
2022-11-14T23:12:41.942Z,97036.13
2022-11-14T23:15:30.052Z,97042.53
2022-11-14T23:18:17.071Z,97038.25
2022-11-14T23:21:12.596Z,97032.63
2022-11-14T23:24:00.804Z,97032.38
2022-11-14T23:26:47.681Z,97034.56
2022-11-14T23:29:34.482Z,97029.16
2022-11-14T23:32:21.383Z,97035.44
2022-11-14T23:35:08.864Z,97030.13
2022-11-14T23:37:57.351Z,97031.16
2022-11-14T23:40:44.033Z,97025.28
2022-11-14T23:43:31.415Z,97027.91
2022-11-14T23:46:18.571Z,97028.31
2022-11-14T23:49:05.032Z,97024.56
2022-11-14T23:51:51.884Z,97024.94
2022-11-14T23:54:40.194Z,97028.41
2022-11-14T23:57:26.856Z,97013.47
